Main page
METAR-TAF:

METAR-TAF

Airports :

Rasht Airport

Rasht, Iran

latitude: 37-12N, longitude: 049-38E, elevation: -7 m

Current weather observation

The report was made 33 minutes ago, at 16:00 UTC
Wind 4 kt from the North
Temperature 4°C
Humidity 93%
Pressure 1027 hPa
Visibility: 8000 m

METAR: OIGG 251600Z 01004KT 8000 NSC 04/03 Q1027

Time: 20:03 (16:33 UTC)


TAF: missing

Weather observations and forecasts of more than 4000 airports (METAR and TAF reports).

The available stations are represented by yellow and red dots on the map.

Hover mouse over dot to see the name of the station.

Then click to see weather observations and forecasts.

To change the map : click on the green buttons with a black cross to zoom in, on the green button with a dash to zoom out, or on the green arrows for adjacent maps.


METAR-TAF: